Hakon Mosby — LJIT — position and weather

sailwx.info

Track history (hours):
 
Tides and Currents Weather Stations Pressure Air Temp Water Temp Dewpoint Dewpoint Depression Visibility Wind Speed Wind Dir Waves Ship Positions

Oceanographic research ship Hakon Mosby (Norway)

Detailed information on ship capabilities available from University of Delaware's Ocean Information Center and ARCUS's ALIAS (Arctic Logistics Information and Support) project.

Last reported at 2016-Jun-15 18:28 UTC. Time now 2016-Jun-27 22:16 UTC.
Position N 60°24' E 005°19'.
Warning: this ship's position is 12 days out of date.

Type: Dredging. MMSI: 258244000.

Date/timePositionNaut miles runAvg speedWind from/ knotsBaromVisibWave heightAir tempDewpointWater temp
2016-Jun-15 18:28N 60°24' E 005°19'0 0.0
2016-Jun-15 17:25N 60°24' E 005°19'212 6.4
2016-Jun-14 08:22N 63°29' E 009°00'911.1
2016-Jun-14 07:34N 63°35' E 009°16'8411.2
2016-Jun-14 00:04N 64°45' E 010°60'611.3
2016-Jun-13 23:33N 64°49' E 011°09'1111.4
2016-Jun-13 22:33N 64°57' E 011°29'1111.1
2016-Jun-13 21:33N 65°05' E 011°47'1111.2
2016-Jun-13 20:34N 65°15' E 011°56'5510.6
2016-Jun-13 15:25N 66°06' E 012°44'1210.7
2016-Jun-13 14:18N 66°17' E 012°56'810.9
2016-Jun-13 13:33N 66°25' E 012°59'  
Track history (hours):
 
Tides and Currents Weather Stations Pressure Air Temp Water Temp Dewpoint Dewpoint Depression Visibility Wind Speed Wind Dir Waves Ship Positions

Oceanographic research ship Hakon Mosby (Norway)

Detailed information on ship capabilities available from University of Delaware's Ocean Information Center and ARCUS's ALIAS (Arctic Logistics Information and Support) project.

Last reported at 2016-Jun-15 18:28 UTC. Time now 2016-Jun-27 22:16 UTC.
Position N 60°24' E 005°19'.
Warning: this ship's position is 12 days out of date.

Type: Dredging. MMSI: 258244000.

Date/timePositionNaut miles runAvg speedWind from/ knotsBaromVisibWave heightAir tempDewpointWater temp
2016-Jun-15 18:28N 60°24' E 005°19'0 0.0
2016-Jun-15 17:25N 60°24' E 005°19'212 6.4
2016-Jun-14 08:22N 63°29' E 009°00'911.1
2016-Jun-14 07:34N 63°35' E 009°16'8411.2
2016-Jun-14 00:04N 64°45' E 010°60'611.3
2016-Jun-13 23:33N 64°49' E 011°09'1111.4
2016-Jun-13 22:33N 64°57' E 011°29'1111.1
2016-Jun-13 21:33N 65°05' E 011°47'1111.2
2016-Jun-13 20:34N 65°15' E 011°56'5510.6
2016-Jun-13 15:25N 66°06' E 012°44'1210.7
2016-Jun-13 14:18N 66°17' E 012°56'810.9
2016-Jun-13 13:33N 66°25' E 012°59'  

Dump ship's entire track history